sensor_id;sensor_type;location;lat;lon;timestamp;P1;durP1;ratioP1;P2;durP2;ratioP2
55003;SDS011;40900;52.710;6.438;2023-03-21T00:00:35;59.97;;;33.22;;
55003;SDS011;40900;52.710;6.438;2023-03-21T00:03:02;56.75;;;32.65;;
55003;SDS011;40900;52.710;6.438;2023-03-21T00:05:28;68.13;;;36.08;;
55003;SDS011;40900;52.710;6.438;2023-03-21T00:07:54;73.93;;;37.70;;
55003;SDS011;40900;52.710;6.438;2023-03-21T00:10:20;78.95;;;39.45;;
55003;SDS011;40900;52.710;6.438;2023-03-21T00:12:46;79.72;;;39.35;;
55003;SDS011;40900;52.710;6.438;2023-03-21T00:15:19;96.15;;;42.33;;
55003;SDS011;40900;52.710;6.438;2023-03-21T00:17:45;99.45;;;43.22;;
55003;SDS011;40900;52.710;6.438;2023-03-21T00:20:14;114.07;;;46.40;;
55003;SDS011;40900;52.710;6.438;2023-03-21T00:22:41;119.47;;;47.38;;
55003;SDS011;40900;52.710;6.438;2023-03-21T00:25:07;104.10;;;46.15;;
55003;SDS011;40900;52.710;6.438;2023-03-21T00:27:35;108.45;;;47.22;;
55003;SDS011;40900;52.710;6.438;2023-03-21T00:30:01;107.45;;;46.88;;
55003;SDS011;40900;52.710;6.438;2023-03-21T00:32:27;105.72;;;48.17;;
55003;SDS011;40900;52.710;6.438;2023-03-21T00:34:53;98.43;;;45.05;;
55003;SDS011;40900;52.710;6.438;2023-03-21T00:37:19;97.45;;;46.42;;
55003;SDS011;40900;52.710;6.438;2023-03-21T00:39:46;105.82;;;45.72;;
55003;SDS011;40900;52.710;6.438;2023-03-21T00:42:15;108.38;;;48.25;;
55003;SDS011;40900;52.710;6.438;2023-03-21T00:44:41;95.07;;;44.40;;
55003;SDS011;40900;52.710;6.438;2023-03-21T00:47:11;110.72;;;47.60;;
55003;SDS011;40900;52.710;6.438;2023-03-21T00:49:37;107.13;;;47.22;;
55003;SDS011;40900;52.710;6.438;2023-03-21T00:52:04;103.40;;;45.50;;
55003;SDS011;40900;52.710;6.438;2023-03-21T00:54:32;98.80;;;46.88;;
55003;SDS011;40900;52.710;6.438;2023-03-21T00:56:58;90.55;;;42.67;;
55003;SDS011;40900;52.710;6.438;2023-03-21T00:59:25;89.10;;;41.78;;
55003;SDS011;40900;52.710;6.438;2023-03-21T01:01:51;94.07;;;42.80;;
55003;SDS011;40900;52.710;6.438;2023-03-21T01:04:18;107.35;;;44.75;;
55003;SDS011;40900;52.710;6.438;2023-03-21T01:06:45;90.93;;;40.42;;
55003;SDS011;40900;52.710;6.438;2023-03-21T01:09:13;89.40;;;40.80;;
55003;SDS011;40900;52.710;6.438;2023-03-21T01:11:40;96.22;;;42.67;;
55003;SDS011;40900;52.710;6.438;2023-03-21T01:14:07;103.55;;;43.60;;
55003;SDS011;40900;52.710;6.438;2023-03-21T01:16:33;100.55;;;41.50;;
55003;SDS011;40900;52.710;6.438;2023-03-21T01:19:01;99.95;;;42.15;;
55003;SDS011;40900;52.710;6.438;2023-03-21T01:21:27;84.85;;;38.15;;
55003;SDS011;40900;52.710;6.438;2023-03-21T01:23:53;80.97;;;37.15;;
55003;SDS011;40900;52.710;6.438;2023-03-21T01:26:19;91.28;;;38.15;;
55003;SDS011;40900;52.710;6.438;2023-03-21T01:28:44;77.10;;;36.80;;
55003;SDS011;40900;52.710;6.438;2023-03-21T01:31:12;71.85;;;35.05;;
55003;SDS011;40900;52.710;6.438;2023-03-21T01:33:39;72.00;;;33.92;;
55003;SDS011;40900;52.710;6.438;2023-03-21T01:36:05;69.82;;;34.78;;
55003;SDS011;40900;52.710;6.438;2023-03-21T01:38:32;56.40;;;32.90;;
55003;SDS011;40900;52.710;6.438;2023-03-21T01:40:59;63.22;;;33.50;;
55003;SDS011;40900;52.710;6.438;2023-03-21T01:43:29;62.30;;;34.45;;
55003;SDS011;40900;52.710;6.438;2023-03-21T01:48:47;63.45;;;33.65;;
55003;SDS011;40900;52.710;6.438;2023-03-21T01:51:17;62.42;;;33.00;;
55003;SDS011;40900;52.710;6.438;2023-03-21T01:53:44;66.43;;;33.90;;
55003;SDS011;40900;52.710;6.438;2023-03-21T01:56:13;67.28;;;33.85;;
55003;SDS011;40900;52.710;6.438;2023-03-21T01:58:49;73.93;;;35.03;;
55003;SDS011;40900;52.710;6.438;2023-03-21T02:01:17;74.07;;;35.05;;
55003;SDS011;40900;52.710;6.438;2023-03-21T02:03:46;71.60;;;34.72;;
55003;SDS011;40900;52.710;6.438;2023-03-21T02:07:03;68.65;;;33.25;;
55003;SDS011;40900;52.710;6.438;2023-03-21T02:09:08;70.90;;;34.15;;
55003;SDS011;40900;52.710;6.438;2023-03-21T02:11:37;72.40;;;32.63;;
55003;SDS011;40900;52.710;6.438;2023-03-21T02:14:03;71.82;;;33.35;;
55003;SDS011;40900;52.710;6.438;2023-03-21T02:16:36;68.38;;;32.83;;
55003;SDS011;40900;52.710;6.438;2023-03-21T02:44:14;58.53;;;30.38;;
55003;SDS011;40900;52.710;6.438;2023-03-21T02:47:42;60.75;;;30.30;;
55003;SDS011;40900;52.710;6.438;2023-03-21T02:49:57;60.33;;;31.25;;
55003;SDS011;40900;52.710;6.438;2023-03-21T02:52:32;61.80;;;32.25;;
55003;SDS011;40900;52.710;6.438;2023-03-21T02:55:00;56.50;;;30.80;;
55003;SDS011;40900;52.710;6.438;2023-03-21T02:57:29;52.35;;;30.35;;
55003;SDS011;40900;52.710;6.438;2023-03-21T02:59:55;54.03;;;30.42;;
55003;SDS011;40900;52.710;6.438;2023-03-21T03:02:23;61.45;;;31.75;;
55003;SDS011;40900;52.710;6.438;2023-03-21T03:04:51;50.45;;;29.20;;
55003;SDS011;40900;52.710;6.438;2023-03-21T03:15:47;48.85;;;29.80;;
55003;SDS011;40900;52.710;6.438;2023-03-21T03:19:07;49.33;;;29.85;;
55003;SDS011;40900;52.710;6.438;2023-03-21T03:26:18;54.90;;;31.83;;
55003;SDS011;40900;52.710;6.438;2023-03-21T03:28:52;56.03;;;31.65;;
55003;SDS011;40900;52.710;6.438;2023-03-21T03:31:23;50.35;;;30.77;;
55003;SDS011;40900;52.710;6.438;2023-03-21T03:33:54;50.03;;;29.30;;
55003;SDS011;40900;52.710;6.438;2023-03-21T03:36:23;54.83;;;30.13;;
55003;SDS011;40900;52.710;6.438;2023-03-21T03:38:53;49.15;;;29.85;;
55003;SDS011;40900;52.710;6.438;2023-03-21T03:41:23;55.47;;;30.13;;
55003;SDS011;40900;52.710;6.438;2023-03-21T03:43:51;50.22;;;29.73;;
55003;SDS011;40900;52.710;6.438;2023-03-21T03:46:26;53.28;;;30.23;;
55003;SDS011;40900;52.710;6.438;2023-03-21T03:49:09;55.10;;;30.20;;
55003;SDS011;40900;52.710;6.438;2023-03-21T03:51:46;52.72;;;29.92;;
55003;SDS011;40900;52.710;6.438;2023-03-21T03:54:20;56.42;;;31.42;;
55003;SDS011;40900;52.710;6.438;2023-03-21T03:56:50;47.20;;;29.17;;
55003;SDS011;40900;52.710;6.438;2023-03-21T03:59:16;52.22;;;30.70;;
55003;SDS011;40900;52.710;6.438;2023-03-21T04:01:49;46.08;;;30.60;;
55003;SDS011;40900;52.710;6.438;2023-03-21T04:04:15;44.75;;;29.60;;
55003;SDS011;40900;52.710;6.438;2023-03-21T04:06:42;42.50;;;28.48;;
55003;SDS011;40900;52.710;6.438;2023-03-21T04:09:10;50.25;;;31.02;;
55003;SDS011;40900;52.710;6.438;2023-03-21T04:11:36;43.85;;;28.83;;
55003;SDS011;40900;52.710;6.438;2023-03-21T04:14:01;52.08;;;30.45;;
55003;SDS011;40900;52.710;6.438;2023-03-21T04:16:27;43.35;;;30.10;;
55003;SDS011;40900;52.710;6.438;2023-03-21T04:18:55;44.85;;;30.02;;
55003;SDS011;40900;52.710;6.438;2023-03-21T04:21:21;46.97;;;30.42;;
55003;SDS011;40900;52.710;6.438;2023-03-21T04:23:46;50.00;;;32.00;;
55003;SDS011;40900;52.710;6.438;2023-03-21T04:26:12;49.70;;;31.73;;
55003;SDS011;40900;52.710;6.438;2023-03-21T04:28:38;46.03;;;30.77;;
55003;SDS011;40900;52.710;6.438;2023-03-21T04:31:05;47.67;;;30.38;;
55003;SDS011;40900;52.710;6.438;2023-03-21T04:33:31;45.42;;;31.10;;
55003;SDS011;40900;52.710;6.438;2023-03-21T04:36:03;47.60;;;32.60;;
55003;SDS011;40900;52.710;6.438;2023-03-21T04:38:30;51.30;;;32.67;;
55003;SDS011;40900;52.710;6.438;2023-03-21T04:40:57;48.67;;;33.85;;
55003;SDS011;40900;52.710;6.438;2023-03-21T04:43:24;51.30;;;35.40;;
55003;SDS011;40900;52.710;6.438;2023-03-21T04:45:50;52.63;;;36.65;;
55003;SDS011;40900;52.710;6.438;2023-03-21T04:48:16;56.78;;;37.22;;
55003;SDS011;40900;52.710;6.438;2023-03-21T04:50:44;54.25;;;35.40;;
55003;SDS011;40900;52.710;6.438;2023-03-21T04:53:10;59.70;;;38.25;;
55003;SDS011;40900;52.710;6.438;2023-03-21T04:55:36;61.00;;;38.30;;
55003;SDS011;40900;52.710;6.438;2023-03-21T04:58:03;63.15;;;39.38;;
55003;SDS011;40900;52.710;6.438;2023-03-21T05:00:29;67.55;;;41.00;;
55003;SDS011;40900;52.710;6.438;2023-03-21T05:02:56;63.50;;;39.75;;
55003;SDS011;40900;52.710;6.438;2023-03-21T05:05:23;63.40;;;40.03;;
55003;SDS011;40900;52.710;6.438;2023-03-21T05:07:49;65.72;;;41.72;;
55003;SDS011;40900;52.710;6.438;2023-03-21T05:10:15;70.28;;;43.08;;
55003;SDS011;40900;52.710;6.438;2023-03-21T05:12:41;66.55;;;41.88;;
55003;SDS011;40900;52.710;6.438;2023-03-21T05:15:07;65.00;;;41.33;;
55003;SDS011;40900;52.710;6.438;2023-03-21T05:17:33;71.68;;;43.72;;
55003;SDS011;40900;52.710;6.438;2023-03-21T05:19:59;69.53;;;42.53;;
55003;SDS011;40900;52.710;6.438;2023-03-21T05:22:25;68.70;;;41.97;;
55003;SDS011;40900;52.710;6.438;2023-03-21T05:24:53;69.97;;;44.70;;
55003;SDS011;40900;52.710;6.438;2023-03-21T05:27:20;68.47;;;42.78;;
55003;SDS011;40900;52.710;6.438;2023-03-21T05:30:06;77.13;;;45.13;;
55003;SDS011;40900;52.710;6.438;2023-03-21T05:32:35;70.35;;;43.08;;
55003;SDS011;40900;52.710;6.438;2023-03-21T05:35:01;74.65;;;43.97;;
55003;SDS011;40900;52.710;6.438;2023-03-21T05:37:27;76.70;;;44.08;;
55003;SDS011;40900;52.710;6.438;2023-03-21T05:39:53;69.93;;;43.42;;
55003;SDS011;40900;52.710;6.438;2023-03-21T05:42:19;73.70;;;44.58;;
55003;SDS011;40900;52.710;6.438;2023-03-21T05:44:45;74.88;;;45.20;;
55003;SDS011;40900;52.710;6.438;2023-03-21T05:47:11;76.85;;;44.53;;
55003;SDS011;40900;52.710;6.438;2023-03-21T05:49:38;76.75;;;45.13;;
55003;SDS011;40900;52.710;6.438;2023-03-21T05:52:04;73.55;;;43.60;;
55003;SDS011;40900;52.710;6.438;2023-03-21T05:54:30;78.78;;;44.63;;
55003;SDS011;40900;52.710;6.438;2023-03-21T05:56:56;79.38;;;46.17;;
55003;SDS011;40900;52.710;6.438;2023-03-21T05:59:21;77.13;;;44.35;;
55003;SDS011;40900;52.710;6.438;2023-03-21T06:01:47;75.55;;;43.35;;
55003;SDS011;40900;52.710;6.438;2023-03-21T06:04:13;84.15;;;43.78;;
55003;SDS011;40900;52.710;6.438;2023-03-21T06:06:39;69.65;;;40.90;;
55003;SDS011;40900;52.710;6.438;2023-03-21T06:09:04;70.65;;;40.63;;
55003;SDS011;40900;52.710;6.438;2023-03-21T06:11:34;68.78;;;40.38;;
55003;SDS011;40900;52.710;6.438;2023-03-21T06:14:01;56.83;;;36.75;;
55003;SDS011;40900;52.710;6.438;2023-03-21T06:16:27;60.22;;;36.53;;
55003;SDS011;40900;52.710;6.438;2023-03-21T06:18:54;60.42;;;35.97;;
55003;SDS011;40900;52.710;6.438;2023-03-21T06:21:20;52.97;;;35.05;;
55003;SDS011;40900;52.710;6.438;2023-03-21T06:23:46;46.10;;;32.40;;
55003;SDS011;40900;52.710;6.438;2023-03-21T06:26:12;46.03;;;30.52;;
55003;SDS011;40900;52.710;6.438;2023-03-21T06:28:38;46.97;;;31.08;;
55003;SDS011;40900;52.710;6.438;2023-03-21T06:31:04;47.45;;;30.50;;
55003;SDS011;40900;52.710;6.438;2023-03-21T06:33:30;43.97;;;28.25;;
55003;SDS011;40900;52.710;6.438;2023-03-21T06:35:57;45.03;;;30.10;;
55003;SDS011;40900;52.710;6.438;2023-03-21T06:38:23;46.30;;;28.58;;
55003;SDS011;40900;52.710;6.438;2023-03-21T06:40:50;43.63;;;28.05;;
55003;SDS011;40900;52.710;6.438;2023-03-21T06:43:16;40.58;;;27.83;;
55003;SDS011;40900;52.710;6.438;2023-03-21T06:45:42;45.97;;;29.77;;
55003;SDS011;40900;52.710;6.438;2023-03-21T06:48:08;44.72;;;29.13;;
55003;SDS011;40900;52.710;6.438;2023-03-21T06:50:34;43.53;;;28.92;;
55003;SDS011;40900;52.710;6.438;2023-03-21T06:53:00;48.67;;;30.35;;
55003;SDS011;40900;52.710;6.438;2023-03-21T06:55:26;48.20;;;29.35;;
55003;SDS011;40900;52.710;6.438;2023-03-21T06:57:53;52.10;;;29.65;;
55003;SDS011;40900;52.710;6.438;2023-03-21T07:00:20;45.58;;;30.55;;
55003;SDS011;40900;52.710;6.438;2023-03-21T07:02:47;45.10;;;30.73;;
55003;SDS011;40900;52.710;6.438;2023-03-21T07:05:14;45.92;;;30.48;;
55003;SDS011;40900;52.710;6.438;2023-03-21T07:07:40;46.70;;;29.98;;
55003;SDS011;40900;52.710;6.438;2023-03-21T07:10:08;49.58;;;31.20;;
55003;SDS011;40900;52.710;6.438;2023-03-21T07:12:34;46.65;;;31.35;;
55003;SDS011;40900;52.710;6.438;2023-03-21T07:15:03;47.47;;;32.03;;
55003;SDS011;40900;52.710;6.438;2023-03-21T07:17:31;55.10;;;34.00;;
55003;SDS011;40900;52.710;6.438;2023-03-21T07:19:57;49.80;;;32.28;;
55003;SDS011;40900;52.710;6.438;2023-03-21T07:22:23;46.78;;;32.83;;
55003;SDS011;40900;52.710;6.438;2023-03-21T07:24:49;46.65;;;32.47;;
55003;SDS011;40900;52.710;6.438;2023-03-21T07:27:15;42.83;;;29.98;;
55003;SDS011;40900;52.710;6.438;2023-03-21T07:29:41;48.25;;;32.08;;
55003;SDS011;40900;52.710;6.438;2023-03-21T07:32:08;46.90;;;31.25;;
55003;SDS011;40900;52.710;6.438;2023-03-21T07:34:35;46.42;;;30.63;;
55003;SDS011;40900;52.710;6.438;2023-03-21T07:37:02;51.53;;;32.30;;
55003;SDS011;40900;52.710;6.438;2023-03-21T07:39:28;55.90;;;31.70;;
55003;SDS011;40900;52.710;6.438;2023-03-21T07:41:53;53.53;;;32.15;;
55003;SDS011;40900;52.710;6.438;2023-03-21T07:44:20;50.20;;;31.95;;
55003;SDS011;40900;52.710;6.438;2023-03-21T07:46:46;49.10;;;31.42;;
55003;SDS011;40900;52.710;6.438;2023-03-21T07:49:12;45.90;;;29.27;;
55003;SDS011;40900;52.710;6.438;2023-03-21T07:51:38;47.58;;;29.80;;
55003;SDS011;40900;52.710;6.438;2023-03-21T07:54:04;43.35;;;29.85;;
55003;SDS011;40900;52.710;6.438;2023-03-21T07:56:30;57.30;;;31.08;;
55003;SDS011;40900;52.710;6.438;2023-03-21T07:58:56;41.35;;;28.73;;
55003;SDS011;40900;52.710;6.438;2023-03-21T08:01:23;45.78;;;29.70;;
55003;SDS011;40900;52.710;6.438;2023-03-21T08:03:49;48.15;;;30.23;;
55003;SDS011;40900;52.710;6.438;2023-03-21T08:06:20;49.20;;;28.67;;
55003;SDS011;40900;52.710;6.438;2023-03-21T08:08:47;46.70;;;29.27;;
55003;SDS011;40900;52.710;6.438;2023-03-21T08:11:13;43.97;;;29.83;;
55003;SDS011;40900;52.710;6.438;2023-03-21T08:13:39;47.42;;;29.67;;
55003;SDS011;40900;52.710;6.438;2023-03-21T08:16:06;43.85;;;28.88;;
55003;SDS011;40900;52.710;6.438;2023-03-21T08:18:32;44.53;;;28.00;;
55003;SDS011;40900;52.710;6.438;2023-03-21T08:20:58;50.58;;;28.77;;
55003;SDS011;40900;52.710;6.438;2023-03-21T08:23:23;44.30;;;28.52;;
55003;SDS011;40900;52.710;6.438;2023-03-21T08:25:53;46.70;;;28.08;;
55003;SDS011;40900;52.710;6.438;2023-03-21T08:28:20;46.63;;;28.40;;
55003;SDS011;40900;52.710;6.438;2023-03-21T08:30:46;44.95;;;29.35;;
55003;SDS011;40900;52.710;6.438;2023-03-21T08:33:12;46.60;;;27.77;;
55003;SDS011;40900;52.710;6.438;2023-03-21T08:35:39;45.28;;;27.17;;
55003;SDS011;40900;52.710;6.438;2023-03-21T08:38:05;41.28;;;25.77;;
55003;SDS011;40900;52.710;6.438;2023-03-21T08:40:31;44.35;;;26.50;;
55003;SDS011;40900;52.710;6.438;2023-03-21T08:42:57;40.33;;;26.67;;
55003;SDS011;40900;52.710;6.438;2023-03-21T08:45:24;49.13;;;26.25;;
55003;SDS011;40900;52.710;6.438;2023-03-21T08:47:51;40.53;;;24.85;;
55003;SDS011;40900;52.710;6.438;2023-03-21T08:50:18;43.75;;;24.63;;
55003;SDS011;40900;52.710;6.438;2023-03-21T08:52:45;43.55;;;26.05;;
55003;SDS011;40900;52.710;6.438;2023-03-21T08:55:11;45.95;;;25.85;;
55003;SDS011;40900;52.710;6.438;2023-03-21T08:57:38;42.17;;;24.80;;
55003;SDS011;40900;52.710;6.438;2023-03-21T09:00:04;38.60;;;24.80;;
55003;SDS011;40900;52.710;6.438;2023-03-21T09:02:36;42.20;;;24.50;;
55003;SDS011;40900;52.710;6.438;2023-03-21T09:05:02;41.00;;;23.73;;
55003;SDS011;40900;52.710;6.438;2023-03-21T09:07:29;40.33;;;23.13;;
55003;SDS011;40900;52.710;6.438;2023-03-21T09:09:58;43.58;;;23.67;;
55003;SDS011;40900;52.710;6.438;2023-03-21T09:12:24;38.80;;;24.20;;
55003;SDS011;40900;52.710;6.438;2023-03-21T09:14:50;36.38;;;24.00;;
55003;SDS011;40900;52.710;6.438;2023-03-21T09:17:17;38.45;;;21.77;;
55003;SDS011;40900;52.710;6.438;2023-03-21T09:19:43;40.72;;;22.88;;
55003;SDS011;40900;52.710;6.438;2023-03-21T09:22:11;37.97;;;22.30;;
55003;SDS011;40900;52.710;6.438;2023-03-21T09:24:45;39.40;;;22.20;;
55003;SDS011;40900;52.710;6.438;2023-03-21T09:27:15;36.88;;;21.90;;
55003;SDS011;40900;52.710;6.438;2023-03-21T09:32:13;37.15;;;21.83;;
55003;SDS011;40900;52.710;6.438;2023-03-21T09:34:39;43.65;;;24.05;;
55003;SDS011;40900;52.710;6.438;2023-03-21T09:37:08;36.97;;;22.38;;
55003;SDS011;40900;52.710;6.438;2023-03-21T09:39:35;34.80;;;21.67;;
55003;SDS011;40900;52.710;6.438;2023-03-21T09:47:29;37.40;;;20.52;;
55003;SDS011;40900;52.710;6.438;2023-03-21T09:50:03;32.53;;;20.30;;
55003;SDS011;40900;52.710;6.438;2023-03-21T09:52:46;33.13;;;19.58;;
55003;SDS011;40900;52.710;6.438;2023-03-21T09:55:28;34.88;;;19.92;;
55003;SDS011;40900;52.710;6.438;2023-03-21T10:00:44;34.08;;;18.48;;
55003;SDS011;40900;52.710;6.438;2023-03-21T10:05:49;26.42;;;17.30;;
55003;SDS011;40900;52.710;6.438;2023-03-21T10:10:50;32.92;;;17.60;;
55003;SDS011;40900;52.710;6.438;2023-03-21T10:13:20;33.85;;;17.17;;
55003;SDS011;40900;52.710;6.438;2023-03-21T10:15:55;32.75;;;17.92;;
55003;SDS011;40900;52.710;6.438;2023-03-21T10:18:23;30.25;;;18.63;;
55003;SDS011;40900;52.710;6.438;2023-03-21T10:20:51;30.00;;;18.15;;
55003;SDS011;40900;52.710;6.438;2023-03-21T10:23:18;30.45;;;18.15;;
55003;SDS011;40900;52.710;6.438;2023-03-21T10:25:51;31.10;;;18.38;;
55003;SDS011;40900;52.710;6.438;2023-03-21T10:28:21;29.73;;;17.95;;
55003;SDS011;40900;52.710;6.438;2023-03-21T10:30:59;29.40;;;17.92;;
55003;SDS011;40900;52.710;6.438;2023-03-21T10:33:35;29.92;;;18.92;;
55003;SDS011;40900;52.710;6.438;2023-03-21T10:36:10;25.50;;;16.75;;
55003;SDS011;40900;52.710;6.438;2023-03-21T10:39:00;31.17;;;18.77;;
55003;SDS011;40900;52.710;6.438;2023-03-21T10:41:29;33.78;;;18.92;;
55003;SDS011;40900;52.710;6.438;2023-03-21T10:44:10;31.52;;;18.67;;
55003;SDS011;40900;52.710;6.438;2023-03-21T10:46:47;35.58;;;18.70;;
55003;SDS011;40900;52.710;6.438;2023-03-21T10:49:18;31.58;;;18.10;;
55003;SDS011;40900;52.710;6.438;2023-03-21T10:51:46;31.90;;;19.27;;
55003;SDS011;40900;52.710;6.438;2023-03-21T10:54:18;35.78;;;19.33;;
55003;SDS011;40900;52.710;6.438;2023-03-21T10:57:00;28.05;;;18.27;;
55003;SDS011;40900;52.710;6.438;2023-03-21T10:59:43;31.23;;;17.08;;
55003;SDS011;40900;52.710;6.438;2023-03-21T11:02:17;26.52;;;16.85;;
55003;SDS011;40900;52.710;6.438;2023-03-21T11:04:48;25.60;;;16.27;;
55003;SDS011;40900;52.710;6.438;2023-03-21T11:07:15;24.38;;;14.73;;
55003;SDS011;40900;52.710;6.438;2023-03-21T11:12:35;30.75;;;15.23;;
55003;SDS011;40900;52.710;6.438;2023-03-21T11:15:37;27.10;;;14.40;;
55003;SDS011;40900;52.710;6.438;2023-03-21T11:18:00;22.17;;;13.27;;
55003;SDS011;40900;52.710;6.438;2023-03-21T11:20:41;19.80;;;12.70;;
55003;SDS011;40900;52.710;6.438;2023-03-21T11:23:12;20.13;;;11.85;;
55003;SDS011;40900;52.710;6.438;2023-03-21T11:25:39;19.58;;;11.18;;
55003;SDS011;40900;52.710;6.438;2023-03-21T11:28:17;20.08;;;10.98;;
55003;SDS011;40900;52.710;6.438;2023-03-21T11:30:49;20.20;;;11.10;;
55003;SDS011;40900;52.710;6.438;2023-03-21T11:33:21;14.95;;;9.88;;
55003;SDS011;40900;52.710;6.438;2023-03-21T11:36:01;17.08;;;10.68;;
55003;SDS011;40900;52.710;6.438;2023-03-21T11:38:30;17.25;;;10.27;;
55003;SDS011;40900;52.710;6.438;2023-03-21T11:41:02;20.05;;;9.25;;
55003;SDS011;40900;52.710;6.438;2023-03-21T11:46:04;16.15;;;8.63;;
55003;SDS011;40900;52.710;6.438;2023-03-21T11:48:40;16.33;;;9.20;;
55003;SDS011;40900;52.710;6.438;2023-03-21T11:56:25;16.48;;;9.00;;
55003;SDS011;40900;52.710;6.438;2023-03-21T12:04:41;13.15;;;8.73;;
55003;SDS011;40900;52.710;6.438;2023-03-21T12:16:14;15.98;;;8.75;;
55003;SDS011;40900;52.710;6.438;2023-03-21T12:24:09;16.80;;;8.65;;
55003;SDS011;40900;52.710;6.438;2023-03-21T12:37:25;12.90;;;7.85;;
55003;SDS011;40900;52.710;6.438;2023-03-21T12:40:11;13.98;;;8.20;;
55003;SDS011;40900;52.710;6.438;2023-03-21T12:45:42;15.13;;;8.68;;
55003;SDS011;40900;52.710;6.438;2023-03-21T12:48:23;14.25;;;8.13;;
55003;SDS011;40900;52.710;6.438;2023-03-21T12:51:01;15.38;;;8.35;;
55003;SDS011;40900;52.710;6.438;2023-03-21T12:54:16;12.85;;;7.82;;
55003;SDS011;40900;52.710;6.438;2023-03-21T12:56:30;17.75;;;8.77;;
55003;SDS011;40900;52.710;6.438;2023-03-21T12:59:32;15.95;;;8.52;;
55003;SDS011;40900;52.710;6.438;2023-03-21T13:02:21;12.45;;;8.13;;
55003;SDS011;40900;52.710;6.438;2023-03-21T13:07:42;21.52;;;9.88;;
55003;SDS011;40900;52.710;6.438;2023-03-21T13:10:14;15.65;;;8.52;;
55003;SDS011;40900;52.710;6.438;2023-03-21T13:20:53;14.80;;;8.23;;
55003;SDS011;40900;52.710;6.438;2023-03-21T13:23:22;16.45;;;8.57;;
55003;SDS011;40900;52.710;6.438;2023-03-21T13:25:50;15.82;;;9.13;;
55003;SDS011;40900;52.710;6.438;2023-03-21T13:28:25;15.18;;;8.20;;
55003;SDS011;40900;52.710;6.438;2023-03-21T13:30:53;17.40;;;8.60;;
55003;SDS011;40900;52.710;6.438;2023-03-21T13:33:39;16.60;;;8.27;;
55003;SDS011;40900;52.710;6.438;2023-03-21T13:36:13;15.75;;;8.68;;
55003;SDS011;40900;52.710;6.438;2023-03-21T13:38:43;16.85;;;9.27;;
55003;SDS011;40900;52.710;6.438;2023-03-21T13:41:16;14.45;;;8.50;;
55003;SDS011;40900;52.710;6.438;2023-03-21T13:44:05;17.38;;;8.82;;
55003;SDS011;40900;52.710;6.438;2023-03-21T13:46:44;14.60;;;8.32;;
55003;SDS011;40900;52.710;6.438;2023-03-21T13:49:27;17.10;;;8.95;;
55003;SDS011;40900;52.710;6.438;2023-03-21T13:51:57;16.42;;;8.38;;
55003;SDS011;40900;52.710;6.438;2023-03-21T13:54:26;14.73;;;8.40;;
55003;SDS011;40900;52.710;6.438;2023-03-21T13:57:35;18.23;;;8.63;;
55003;SDS011;40900;52.710;6.438;2023-03-21T14:05:33;13.52;;;7.82;;
55003;SDS011;40900;52.710;6.438;2023-03-21T14:08:02;16.42;;;7.60;;
55003;SDS011;40900;52.710;6.438;2023-03-21T14:10:44;14.88;;;8.10;;
55003;SDS011;40900;52.710;6.438;2023-03-21T14:13:14;18.85;;;8.38;;
55003;SDS011;40900;52.710;6.438;2023-03-21T14:15:44;15.30;;;7.78;;
55003;SDS011;40900;52.710;6.438;2023-03-21T14:18:13;15.43;;;8.40;;
55003;SDS011;40900;52.710;6.438;2023-03-21T14:20:40;17.92;;;8.23;;
55003;SDS011;40900;52.710;6.438;2023-03-21T14:23:09;15.60;;;7.28;;
55003;SDS011;40900;52.710;6.438;2023-03-21T14:25:41;16.15;;;7.95;;
55003;SDS011;40900;52.710;6.438;2023-03-21T14:28:14;15.43;;;7.47;;
55003;SDS011;40900;52.710;6.438;2023-03-21T14:30:54;17.63;;;7.78;;
55003;SDS011;40900;52.710;6.438;2023-03-21T14:33:37;16.38;;;7.88;;
55003;SDS011;40900;52.710;6.438;2023-03-21T14:36:06;17.80;;;7.97;;
55003;SDS011;40900;52.710;6.438;2023-03-21T14:38:37;14.50;;;8.20;;
55003;SDS011;40900;52.710;6.438;2023-03-21T14:41:04;14.98;;;7.90;;
55003;SDS011;40900;52.710;6.438;2023-03-21T14:43:56;14.90;;;8.38;;
55003;SDS011;40900;52.710;6.438;2023-03-21T14:46:35;13.90;;;8.40;;
55003;SDS011;40900;52.710;6.438;2023-03-21T14:51:49;15.02;;;7.97;;
55003;SDS011;40900;52.710;6.438;2023-03-21T14:54:17;15.95;;;8.20;;
55003;SDS011;40900;52.710;6.438;2023-03-21T14:56:44;12.98;;;7.53;;
55003;SDS011;40900;52.710;6.438;2023-03-21T14:59:16;15.02;;;7.78;;
55003;SDS011;40900;52.710;6.438;2023-03-21T15:01:45;15.50;;;7.97;;
55003;SDS011;40900;52.710;6.438;2023-03-21T15:04:15;14.23;;;8.50;;
55003;SDS011;40900;52.710;6.438;2023-03-21T15:06:55;14.70;;;7.53;;
55003;SDS011;40900;52.710;6.438;2023-03-21T15:09:29;14.02;;;7.90;;
55003;SDS011;40900;52.710;6.438;2023-03-21T15:11:57;12.70;;;7.80;;
55003;SDS011;40900;52.710;6.438;2023-03-21T15:14:25;16.35;;;8.32;;
55003;SDS011;40900;52.710;6.438;2023-03-21T15:16:57;16.48;;;8.10;;
55003;SDS011;40900;52.710;6.438;2023-03-21T15:19:31;13.02;;;7.57;;
55003;SDS011;40900;52.710;6.438;2023-03-21T15:22:00;11.63;;;8.02;;
55003;SDS011;40900;52.710;6.438;2023-03-21T15:24:31;14.65;;;8.60;;
55003;SDS011;40900;52.710;6.438;2023-03-21T15:27:04;15.02;;;8.05;;
55003;SDS011;40900;52.710;6.438;2023-03-21T15:29:32;12.40;;;7.80;;
55003;SDS011;40900;52.710;6.438;2023-03-21T15:32:03;20.33;;;8.43;;
55003;SDS011;40900;52.710;6.438;2023-03-21T15:34:30;14.57;;;7.65;;
55003;SDS011;40900;52.710;6.438;2023-03-21T15:36:58;15.18;;;8.35;;
55003;SDS011;40900;52.710;6.438;2023-03-21T15:39:29;13.38;;;8.93;;
55003;SDS011;40900;52.710;6.438;2023-03-21T15:41:57;17.02;;;8.68;;
55003;SDS011;40900;52.710;6.438;2023-03-21T15:44:25;14.40;;;8.10;;
55003;SDS011;40900;52.710;6.438;2023-03-21T15:46:52;13.23;;;7.80;;
55003;SDS011;40900;52.710;6.438;2023-03-21T15:49:31;16.95;;;8.50;;
55003;SDS011;40900;52.710;6.438;2023-03-21T15:54:50;13.35;;;8.20;;
55003;SDS011;40900;52.710;6.438;2023-03-21T15:57:29;13.15;;;7.60;;
55003;SDS011;40900;52.710;6.438;2023-03-21T16:02:35;13.43;;;8.20;;
55003;SDS011;40900;52.710;6.438;2023-03-21T16:05:02;9.77;;;7.43;;
55003;SDS011;40900;52.710;6.438;2023-03-21T16:07:46;15.65;;;8.13;;
55003;SDS011;40900;52.710;6.438;2023-03-21T16:10:32;14.98;;;8.40;;
55003;SDS011;40900;52.710;6.438;2023-03-21T16:13:02;14.15;;;8.60;;
55003;SDS011;40900;52.710;6.438;2023-03-21T16:15:29;15.80;;;8.52;;
55003;SDS011;40900;52.710;6.438;2023-03-21T16:17:56;11.63;;;8.93;;
55003;SDS011;40900;52.710;6.438;2023-03-21T16:20:28;12.50;;;8.07;;
55003;SDS011;40900;52.710;6.438;2023-03-21T16:22:58;12.13;;;8.35;;
55003;SDS011;40900;52.710;6.438;2023-03-21T16:25:25;15.27;;;9.23;;
55003;SDS011;40900;52.710;6.438;2023-03-21T16:27:52;13.25;;;9.00;;
55003;SDS011;40900;52.710;6.438;2023-03-21T16:30:18;15.95;;;8.85;;
55003;SDS011;40900;52.710;6.438;2023-03-21T16:32:46;13.02;;;8.32;;
55003;SDS011;40900;52.710;6.438;2023-03-21T16:35:13;16.48;;;9.65;;
55003;SDS011;40900;52.710;6.438;2023-03-21T16:37:40;12.43;;;9.40;;
55003;SDS011;40900;52.710;6.438;2023-03-21T16:43:03;19.17;;;10.57;;
55003;SDS011;40900;52.710;6.438;2023-03-21T16:45:28;15.30;;;10.45;;
55003;SDS011;40900;52.710;6.438;2023-03-21T16:47:55;13.93;;;10.40;;